sensor_id;sensor_type;location;lat;lon;timestamp;P1;durP1;ratioP1;P2;durP2;ratioP2
59097;SDS011;44883;52.760;6.610;2022-12-31T00:01:39;9.07;;;5.20;;
59097;SDS011;44883;52.760;6.610;2022-12-31T00:04:04;9.68;;;6.25;;
59097;SDS011;44883;52.760;6.610;2022-12-31T00:06:31;9.10;;;5.63;;
59097;SDS011;44883;52.760;6.610;2022-12-31T00:08:59;9.05;;;3.13;;
59097;SDS011;44883;52.760;6.610;2022-12-31T00:11:26;10.02;;;7.28;;
59097;SDS011;44883;52.760;6.610;2022-12-31T00:13:53;9.25;;;3.45;;
59097;SDS011;44883;52.760;6.610;2022-12-31T00:16:23;12.80;;;7.13;;
59097;SDS011;44883;52.760;6.610;2022-12-31T00:18:55;6.72;;;2.70;;
59097;SDS011;44883;52.760;6.610;2022-12-31T00:21:25;12.45;;;7.25;;
59097;SDS011;44883;52.760;6.610;2022-12-31T00:23:53;11.30;;;7.25;;
59097;SDS011;44883;52.760;6.610;2022-12-31T00:26:20;9.13;;;3.30;;
59097;SDS011;44883;52.760;6.610;2022-12-31T00:28:49;6.25;;;2.63;;
59097;SDS011;44883;52.760;6.610;2022-12-31T00:31:16;11.30;;;6.32;;
59097;SDS011;44883;52.760;6.610;2022-12-31T00:33:44;10.43;;;6.10;;
59097;SDS011;44883;52.760;6.610;2022-12-31T00:36:14;10.93;;;5.88;;
59097;SDS011;44883;52.760;6.610;2022-12-31T00:38:43;12.63;;;6.25;;
59097;SDS011;44883;52.760;6.610;2022-12-31T00:41:10;6.93;;;2.38;;
59097;SDS011;44883;52.760;6.610;2022-12-31T00:43:36;11.55;;;6.38;;
59097;SDS011;44883;52.760;6.610;2022-12-31T00:46:02;10.38;;;5.38;;
59097;SDS011;44883;52.760;6.610;2022-12-31T00:48:29;9.43;;;5.78;;
59097;SDS011;44883;52.760;6.610;2022-12-31T00:50:55;8.32;;;2.38;;
59097;SDS011;44883;52.760;6.610;2022-12-31T00:53:21;9.45;;;5.60;;
59097;SDS011;44883;52.760;6.610;2022-12-31T00:55:47;12.20;;;5.93;;
59097;SDS011;44883;52.760;6.610;2022-12-31T00:58:13;10.05;;;5.45;;
59097;SDS011;44883;52.760;6.610;2022-12-31T01:00:39;9.88;;;5.50;;
59097;SDS011;44883;52.760;6.610;2022-12-31T01:03:05;10.38;;;6.30;;
59097;SDS011;44883;52.760;6.610;2022-12-31T01:05:31;10.50;;;6.05;;
59097;SDS011;44883;52.760;6.610;2022-12-31T01:07:58;9.38;;;5.82;;
59097;SDS011;44883;52.760;6.610;2022-12-31T01:10:24;11.40;;;5.88;;
59097;SDS011;44883;52.760;6.610;2022-12-31T01:13:10;9.73;;;5.47;;
59097;SDS011;44883;52.760;6.610;2022-12-31T01:15:36;10.25;;;5.65;;
59097;SDS011;44883;52.760;6.610;2022-12-31T01:18:03;10.40;;;5.57;;
59097;SDS011;44883;52.760;6.610;2022-12-31T01:20:34;8.20;;;5.28;;
59097;SDS011;44883;52.760;6.610;2022-12-31T01:23:04;9.18;;;5.60;;
59097;SDS011;44883;52.760;6.610;2022-12-31T01:25:33;10.43;;;5.97;;
59097;SDS011;44883;52.760;6.610;2022-12-31T01:28:00;9.52;;;6.10;;
59097;SDS011;44883;52.760;6.610;2022-12-31T01:30:27;8.98;;;5.07;;
59097;SDS011;44883;52.760;6.610;2022-12-31T01:32:53;7.72;;;5.00;;
59097;SDS011;44883;52.760;6.610;2022-12-31T01:35:18;7.93;;;4.82;;
59097;SDS011;44883;52.760;6.610;2022-12-31T01:37:44;7.68;;;4.88;;
59097;SDS011;44883;52.760;6.610;2022-12-31T01:40:10;8.10;;;4.95;;
59097;SDS011;44883;52.760;6.610;2022-12-31T01:42:36;7.75;;;4.28;;
59097;SDS011;44883;52.760;6.610;2022-12-31T01:45:02;5.25;;;1.98;;
59097;SDS011;44883;52.760;6.610;2022-12-31T01:47:35;5.28;;;1.75;;
59097;SDS011;44883;52.760;6.610;2022-12-31T01:50:08;5.00;;;2.10;;
59097;SDS011;44883;52.760;6.610;2022-12-31T01:52:38;6.68;;;3.90;;
59097;SDS011;44883;52.760;6.610;2022-12-31T01:57:47;5.90;;;3.20;;
59097;SDS011;44883;52.760;6.610;2022-12-31T02:00:15;6.38;;;3.50;;
59097;SDS011;44883;52.760;6.610;2022-12-31T02:02:41;6.13;;;3.40;;
59097;SDS011;44883;52.760;6.610;2022-12-31T02:05:50;7.30;;;3.30;;
59097;SDS011;44883;52.760;6.610;2022-12-31T02:08:31;5.55;;;3.08;;
59097;SDS011;44883;52.760;6.610;2022-12-31T02:10:58;5.47;;;1.73;;
59097;SDS011;44883;52.760;6.610;2022-12-31T02:13:23;6.38;;;2.83;;
59097;SDS011;44883;52.760;6.610;2022-12-31T02:18:42;5.93;;;2.72;;
59097;SDS011;44883;52.760;6.610;2022-12-31T02:32:30;5.72;;;2.30;;
59097;SDS011;44883;52.760;6.610;2022-12-31T02:35:04;3.08;;;1.38;;
59097;SDS011;44883;52.760;6.610;2022-12-31T02:38:00;5.20;;;2.80;;
59097;SDS011;44883;52.760;6.610;2022-12-31T02:40:30;3.65;;;1.52;;
59097;SDS011;44883;52.760;6.610;2022-12-31T02:42:58;2.45;;;1.40;;
59097;SDS011;44883;52.760;6.610;2022-12-31T02:45:26;5.63;;;3.50;;
59097;SDS011;44883;52.760;6.610;2022-12-31T02:59:25;4.18;;;2.22;;
59097;SDS011;44883;52.760;6.610;2022-12-31T03:02:15;4.32;;;2.10;;
59097;SDS011;44883;52.760;6.610;2022-12-31T03:04:48;6.25;;;2.30;;
59097;SDS011;44883;52.760;6.610;2022-12-31T03:07:21;6.47;;;2.40;;
59097;SDS011;44883;52.760;6.610;2022-12-31T03:09:49;2.15;;;1.15;;
59097;SDS011;44883;52.760;6.610;2022-12-31T03:12:15;6.32;;;2.40;;
59097;SDS011;44883;52.760;6.610;2022-12-31T03:15:00;5.78;;;2.40;;
59097;SDS011;44883;52.760;6.610;2022-12-31T03:17:25;6.72;;;2.40;;
59097;SDS011;44883;52.760;6.610;2022-12-31T03:19:51;6.20;;;2.30;;
59097;SDS011;44883;52.760;6.610;2022-12-31T03:22:37;4.65;;;1.27;;
59097;SDS011;44883;52.760;6.610;2022-12-31T03:25:06;2.10;;;1.15;;
59097;SDS011;44883;52.760;6.610;2022-12-31T03:27:52;6.90;;;3.40;;
59097;SDS011;44883;52.760;6.610;2022-12-31T03:30:18;9.25;;;3.92;;
59097;SDS011;44883;52.760;6.610;2022-12-31T03:32:45;8.52;;;4.80;;
59097;SDS011;44883;52.760;6.610;2022-12-31T03:35:12;7.53;;;2.05;;
59097;SDS011;44883;52.760;6.610;2022-12-31T03:37:39;4.97;;;1.73;;
59097;SDS011;44883;52.760;6.610;2022-12-31T03:40:06;9.40;;;4.40;;
59097;SDS011;44883;52.760;6.610;2022-12-31T03:42:34;6.95;;;4.53;;
59097;SDS011;44883;52.760;6.610;2022-12-31T03:45:00;2.92;;;1.63;;
59097;SDS011;44883;52.760;6.610;2022-12-31T03:47:26;4.70;;;1.80;;
59097;SDS011;44883;52.760;6.610;2022-12-31T03:49:51;6.70;;;4.07;;
59097;SDS011;44883;52.760;6.610;2022-12-31T03:52:17;6.45;;;4.25;;
59097;SDS011;44883;52.760;6.610;2022-12-31T03:54:42;4.47;;;1.60;;
59097;SDS011;44883;52.760;6.610;2022-12-31T03:57:08;2.80;;;1.55;;
59097;SDS011;44883;52.760;6.610;2022-12-31T03:59:34;6.50;;;3.85;;
59097;SDS011;44883;52.760;6.610;2022-12-31T04:01:59;2.45;;;1.30;;
59097;SDS011;44883;52.760;6.610;2022-12-31T04:04:25;3.03;;;1.40;;
59097;SDS011;44883;52.760;6.610;2022-12-31T04:06:51;7.38;;;3.80;;
59097;SDS011;44883;52.760;6.610;2022-12-31T04:09:16;6.55;;;4.00;;
59097;SDS011;44883;52.760;6.610;2022-12-31T04:11:42;5.95;;;3.70;;
59097;SDS011;44883;52.760;6.610;2022-12-31T04:14:08;7.85;;;4.20;;
59097;SDS011;44883;52.760;6.610;2022-12-31T04:16:33;5.65;;;3.58;;
59097;SDS011;44883;52.760;6.610;2022-12-31T04:18:59;3.60;;;1.40;;
59097;SDS011;44883;52.760;6.610;2022-12-31T04:21:25;7.18;;;3.33;;
59097;SDS011;44883;52.760;6.610;2022-12-31T04:23:50;7.97;;;3.47;;
59097;SDS011;44883;52.760;6.610;2022-12-31T04:26:16;6.68;;;3.53;;
59097;SDS011;44883;52.760;6.610;2022-12-31T04:28:41;7.57;;;3.50;;
59097;SDS011;44883;52.760;6.610;2022-12-31T04:31:07;7.70;;;3.58;;
59097;SDS011;44883;52.760;6.610;2022-12-31T04:33:33;8.48;;;3.65;;
59097;SDS011;44883;52.760;6.610;2022-12-31T04:36:02;5.15;;;2.80;;
59097;SDS011;44883;52.760;6.610;2022-12-31T04:38:28;7.88;;;3.35;;
59097;SDS011;44883;52.760;6.610;2022-12-31T04:40:54;6.47;;;2.95;;
59097;SDS011;44883;52.760;6.610;2022-12-31T04:43:38;8.05;;;2.72;;
59097;SDS011;44883;52.760;6.610;2022-12-31T04:46:04;7.40;;;3.38;;
59097;SDS011;44883;52.760;6.610;2022-12-31T04:48:31;2.55;;;1.15;;
59097;SDS011;44883;52.760;6.610;2022-12-31T04:50:59;6.45;;;3.13;;
59097;SDS011;44883;52.760;6.610;2022-12-31T04:53:25;7.20;;;3.05;;
59097;SDS011;44883;52.760;6.610;2022-12-31T04:55:51;7.18;;;3.20;;
59097;SDS011;44883;52.760;6.610;2022-12-31T04:58:17;6.50;;;3.10;;
59097;SDS011;44883;52.760;6.610;2022-12-31T05:00:44;9.70;;;3.20;;
59097;SDS011;44883;52.760;6.610;2022-12-31T05:03:10;4.07;;;1.67;;
59097;SDS011;44883;52.760;6.610;2022-12-31T05:05:40;7.65;;;3.17;;
59097;SDS011;44883;52.760;6.610;2022-12-31T05:08:09;5.80;;;2.85;;
59097;SDS011;44883;52.760;6.610;2022-12-31T05:10:35;3.72;;;1.33;;
59097;SDS011;44883;52.760;6.610;2022-12-31T05:13:01;6.65;;;3.03;;
59097;SDS011;44883;52.760;6.610;2022-12-31T05:15:27;5.35;;;1.48;;
59097;SDS011;44883;52.760;6.610;2022-12-31T05:17:53;6.45;;;1.50;;
59097;SDS011;44883;52.760;6.610;2022-12-31T05:20:18;6.97;;;3.58;;
59097;SDS011;44883;52.760;6.610;2022-12-31T05:22:44;7.82;;;4.22;;
59097;SDS011;44883;52.760;6.610;2022-12-31T05:25:09;6.18;;;1.77;;
59097;SDS011;44883;52.760;6.610;2022-12-31T05:27:35;9.00;;;5.55;;
59097;SDS011;44883;52.760;6.610;2022-12-31T05:30:02;9.50;;;6.05;;
59097;SDS011;44883;52.760;6.610;2022-12-31T05:32:29;10.73;;;6.55;;
59097;SDS011;44883;52.760;6.610;2022-12-31T05:34:55;9.13;;;6.82;;
59097;SDS011;44883;52.760;6.610;2022-12-31T05:37:21;7.32;;;2.70;;
59097;SDS011;44883;52.760;6.610;2022-12-31T05:39:47;10.18;;;7.30;;
59097;SDS011;44883;52.760;6.610;2022-12-31T05:42:13;9.43;;;6.60;;
59097;SDS011;44883;52.760;6.610;2022-12-31T05:44:38;9.70;;;6.72;;
59097;SDS011;44883;52.760;6.610;2022-12-31T05:47:04;10.00;;;7.13;;
59097;SDS011;44883;52.760;6.610;2022-12-31T05:49:30;10.23;;;7.03;;
59097;SDS011;44883;52.760;6.610;2022-12-31T05:51:55;8.82;;;6.55;;
59097;SDS011;44883;52.760;6.610;2022-12-31T05:54:21;4.57;;;2.20;;
59097;SDS011;44883;52.760;6.610;2022-12-31T05:56:46;4.97;;;2.20;;
59097;SDS011;44883;52.760;6.610;2022-12-31T05:59:12;8.50;;;5.88;;
59097;SDS011;44883;52.760;6.610;2022-12-31T06:01:38;8.57;;;6.70;;
59097;SDS011;44883;52.760;6.610;2022-12-31T06:04:03;7.28;;;5.60;;
59097;SDS011;44883;52.760;6.610;2022-12-31T06:06:30;5.47;;;2.47;;
59097;SDS011;44883;52.760;6.610;2022-12-31T06:08:56;9.05;;;6.32;;
59097;SDS011;44883;52.760;6.610;2022-12-31T06:11:21;8.65;;;5.90;;
59097;SDS011;44883;52.760;6.610;2022-12-31T06:13:47;9.10;;;5.93;;
59097;SDS011;44883;52.760;6.610;2022-12-31T06:16:12;8.07;;;6.10;;
59097;SDS011;44883;52.760;6.610;2022-12-31T06:18:38;7.45;;;5.97;;
59097;SDS011;44883;52.760;6.610;2022-12-31T06:21:04;9.68;;;6.28;;
59097;SDS011;44883;52.760;6.610;2022-12-31T06:23:29;9.02;;;6.47;;
59097;SDS011;44883;52.760;6.610;2022-12-31T06:25:55;7.78;;;6.05;;
59097;SDS011;44883;52.760;6.610;2022-12-31T06:28:21;9.27;;;6.40;;
59097;SDS011;44883;52.760;6.610;2022-12-31T06:30:46;9.80;;;6.43;;
59097;SDS011;44883;52.760;6.610;2022-12-31T06:33:12;5.55;;;2.45;;
59097;SDS011;44883;52.760;6.610;2022-12-31T06:35:38;8.88;;;5.68;;
59097;SDS011;44883;52.760;6.610;2022-12-31T06:38:04;8.13;;;5.60;;
59097;SDS011;44883;52.760;6.610;2022-12-31T06:40:29;6.50;;;2.05;;
59097;SDS011;44883;52.760;6.610;2022-12-31T06:42:55;4.13;;;1.80;;
59097;SDS011;44883;52.760;6.610;2022-12-31T06:45:20;4.07;;;1.90;;
59097;SDS011;44883;52.760;6.610;2022-12-31T06:47:46;8.00;;;5.65;;
59097;SDS011;44883;52.760;6.610;2022-12-31T06:50:12;8.32;;;5.57;;
59097;SDS011;44883;52.760;6.610;2022-12-31T06:52:37;8.80;;;6.10;;
59097;SDS011;44883;52.760;6.610;2022-12-31T06:55:03;8.00;;;5.35;;
59097;SDS011;44883;52.760;6.610;2022-12-31T06:57:30;8.40;;;5.55;;
59097;SDS011;44883;52.760;6.610;2022-12-31T06:59:55;8.32;;;5.53;;
59097;SDS011;44883;52.760;6.610;2022-12-31T07:05:28;8.32;;;5.57;;
59097;SDS011;44883;52.760;6.610;2022-12-31T07:10:37;7.85;;;5.50;;
59097;SDS011;44883;52.760;6.610;2022-12-31T07:15:44;4.13;;;1.67;;
59097;SDS011;44883;52.760;6.610;2022-12-31T07:18:44;9.05;;;5.03;;
59097;SDS011;44883;52.760;6.610;2022-12-31T07:21:15;4.63;;;1.65;;
59097;SDS011;44883;52.760;6.610;2022-12-31T07:23:44;2.80;;;1.40;;
59097;SDS011;44883;52.760;6.610;2022-12-31T07:26:32;6.00;;;4.30;;
59097;SDS011;44883;52.760;6.610;2022-12-31T07:29:03;7.05;;;4.50;;
59097;SDS011;44883;52.760;6.610;2022-12-31T07:37:21;2.60;;;1.30;;
59097;SDS011;44883;52.760;6.610;2022-12-31T07:45:27;6.15;;;4.22;;
59097;SDS011;44883;52.760;6.610;2022-12-31T07:48:20;3.50;;;1.55;;
59097;SDS011;44883;52.760;6.610;2022-12-31T07:50:51;7.65;;;4.93;;
59097;SDS011;44883;52.760;6.610;2022-12-31T07:53:22;7.45;;;5.32;;
59097;SDS011;44883;52.760;6.610;2022-12-31T07:55:59;5.50;;;2.25;;
59097;SDS011;44883;52.760;6.610;2022-12-31T08:01:18;4.05;;;1.95;;
59097;SDS011;44883;52.760;6.610;2022-12-31T08:04:08;8.23;;;6.15;;
59097;SDS011;44883;52.760;6.610;2022-12-31T08:06:47;4.68;;;2.15;;
59097;SDS011;44883;52.760;6.610;2022-12-31T08:12:11;9.13;;;6.70;;
59097;SDS011;44883;52.760;6.610;2022-12-31T08:14:45;8.35;;;6.15;;
59097;SDS011;44883;52.760;6.610;2022-12-31T08:17:15;8.77;;;6.53;;
59097;SDS011;44883;52.760;6.610;2022-12-31T08:19:42;8.68;;;6.60;;
59097;SDS011;44883;52.760;6.610;2022-12-31T08:25:12;10.25;;;6.38;;
59097;SDS011;44883;52.760;6.610;2022-12-31T08:30:15;10.50;;;6.57;;
59097;SDS011;44883;52.760;6.610;2022-12-31T08:33:05;7.78;;;6.15;;
59097;SDS011;44883;52.760;6.610;2022-12-31T08:38:30;7.32;;;5.57;;
59097;SDS011;44883;52.760;6.610;2022-12-31T08:49:28;7.25;;;5.20;;
59097;SDS011;44883;52.760;6.610;2022-12-31T08:51:56;6.90;;;5.55;;
59097;SDS011;44883;52.760;6.610;2022-12-31T08:54:23;6.75;;;5.15;;
59097;SDS011;44883;52.760;6.610;2022-12-31T08:57:11;6.72;;;5.00;;
59097;SDS011;44883;52.760;6.610;2022-12-31T09:08:03;4.03;;;1.95;;
59097;SDS011;44883;52.760;6.610;2022-12-31T09:10:36;7.13;;;4.18;;
59097;SDS011;44883;52.760;6.610;2022-12-31T09:13:34;5.28;;;3.95;;
59097;SDS011;44883;52.760;6.610;2022-12-31T09:16:30;6.40;;;3.90;;
59097;SDS011;44883;52.760;6.610;2022-12-31T09:19:07;5.53;;;3.80;;
59097;SDS011;44883;52.760;6.610;2022-12-31T09:21:34;5.82;;;3.20;;
59097;SDS011;44883;52.760;6.610;2022-12-31T09:23:59;6.05;;;3.85;;
59097;SDS011;44883;52.760;6.610;2022-12-31T09:36:55;2.17;;;1.40;;
59097;SDS011;44883;52.760;6.610;2022-12-31T09:39:35;3.42;;;1.63;;
59097;SDS011;44883;52.760;6.610;2022-12-31T09:42:25;2.55;;;1.17;;
59097;SDS011;44883;52.760;6.610;2022-12-31T09:48:00;2.78;;;1.38;;
59097;SDS011;44883;52.760;6.610;2022-12-31T09:56:22;4.15;;;1.25;;
59097;SDS011;44883;52.760;6.610;2022-12-31T09:59:02;2.83;;;1.20;;
59097;SDS011;44883;52.760;6.610;2022-12-31T10:01:49;2.20;;;1.10;;
59097;SDS011;44883;52.760;6.610;2022-12-31T10:23:35;3.65;;;1.60;;
59097;SDS011;44883;52.760;6.610;2022-12-31T10:26:22;2.90;;;1.73;;
59097;SDS011;44883;52.760;6.610;2022-12-31T10:29:14;3.38;;;1.50;;
59097;SDS011;44883;52.760;6.610;2022-12-31T10:43:12;6.18;;;2.63;;
59097;SDS011;44883;52.760;6.610;2022-12-31T10:57:35;5.35;;;2.80;;
59097;SDS011;44883;52.760;6.610;2022-12-31T11:00:18;5.78;;;3.00;;
59097;SDS011;44883;52.760;6.610;2022-12-31T11:11:12;7.45;;;3.42;;
59097;SDS011;44883;52.760;6.610;2022-12-31T11:13:56;5.80;;;3.30;;
59097;SDS011;44883;52.760;6.610;2022-12-31T11:33:30;4.78;;;2.90;;
59097;SDS011;44883;52.760;6.610;2022-12-31T11:38:39;6.63;;;3.33;;
59097;SDS011;44883;52.760;6.610;2022-12-31T11:52:39;6.45;;;3.08;;
59097;SDS011;44883;52.760;6.610;2022-12-31T11:55:22;8.40;;;3.25;;
59097;SDS011;44883;52.760;6.610;2022-12-31T11:58:07;6.18;;;3.33;;
59097;SDS011;44883;52.760;6.610;2022-12-31T12:00:37;7.45;;;3.72;;
59097;SDS011;44883;52.760;6.610;2022-12-31T12:03:05;6.60;;;3.55;;
59097;SDS011;44883;52.760;6.610;2022-12-31T12:05:31;6.22;;;3.40;;
59097;SDS011;44883;52.760;6.610;2022-12-31T12:07:59;5.32;;;2.88;;
59097;SDS011;44883;52.760;6.610;2022-12-31T12:13:09;6.90;;;3.33;;
59097;SDS011;44883;52.760;6.610;2022-12-31T12:15:37;6.13;;;3.35;;
59097;SDS011;44883;52.760;6.610;2022-12-31T12:18:07;5.32;;;2.80;;
59097;SDS011;44883;52.760;6.610;2022-12-31T12:20:37;5.65;;;3.35;;
59097;SDS011;44883;52.760;6.610;2022-12-31T12:26:00;9.23;;;4.22;;
59097;SDS011;44883;52.760;6.610;2022-12-31T12:28:27;8.27;;;3.45;;
59097;SDS011;44883;52.760;6.610;2022-12-31T12:30:56;6.13;;;3.50;;
59097;SDS011;44883;52.760;6.610;2022-12-31T12:33:24;7.00;;;4.20;;
59097;SDS011;44883;52.760;6.610;2022-12-31T12:35:51;6.57;;;4.53;;
59097;SDS011;44883;52.760;6.610;2022-12-31T12:38:18;6.20;;;4.35;;
59097;SDS011;44883;52.760;6.610;2022-12-31T12:40:58;8.00;;;5.13;;
59097;SDS011;44883;52.760;6.610;2022-12-31T12:43:26;10.60;;;7.43;;
59097;SDS011;44883;52.760;6.610;2022-12-31T12:46:04;8.75;;;6.30;;
59097;SDS011;44883;52.760;6.610;2022-12-31T12:48:53;7.70;;;5.45;;
59097;SDS011;44883;52.760;6.610;2022-12-31T12:51:32;8.15;;;5.30;;
59097;SDS011;44883;52.760;6.610;2022-12-31T12:54:22;11.18;;;6.47;;
59097;SDS011;44883;52.760;6.610;2022-12-31T13:02:22;7.60;;;3.92;;
59097;SDS011;44883;52.760;6.610;2022-12-31T13:27:03;12.57;;;10.20;;
59097;SDS011;44883;52.760;6.610;2022-12-31T13:29:49;14.67;;;12.27;;
59097;SDS011;44883;52.760;6.610;2022-12-31T13:32:19;16.20;;;13.18;;
59097;SDS011;44883;52.760;6.610;2022-12-31T13:34:50;16.35;;;14.65;;
59097;SDS011;44883;52.760;6.610;2022-12-31T13:37:53;14.88;;;7.10;;
59097;SDS011;44883;52.760;6.610;2022-12-31T13:40:16;9.30;;;5.07;;
59097;SDS011;44883;52.760;6.610;2022-12-31T13:43:04;12.23;;;10.95;;
59097;SDS011;44883;52.760;6.610;2022-12-31T13:45:38;11.13;;;9.50;;
59097;SDS011;44883;52.760;6.610;2022-12-31T13:48:10;12.05;;;9.13;;
59097;SDS011;44883;52.760;6.610;2022-12-31T13:50:43;12.82;;;9.32;;
59097;SDS011;44883;52.760;6.610;2022-12-31T13:53:25;13.98;;;10.00;;
59097;SDS011;44883;52.760;6.610;2022-12-31T13:56:03;10.90;;;8.20;;
59097;SDS011;44883;52.760;6.610;2022-12-31T13:58:36;9.68;;;6.80;;
59097;SDS011;44883;52.760;6.610;2022-12-31T14:01:21;7.55;;;5.03;;
59097;SDS011;44883;52.760;6.610;2022-12-31T14:06:32;10.13;;;5.88;;
59097;SDS011;44883;52.760;6.610;2022-12-31T14:09:03;10.75;;;5.75;;
59097;SDS011;44883;52.760;6.610;2022-12-31T14:14:30;11.50;;;7.55;;
59097;SDS011;44883;52.760;6.610;2022-12-31T14:17:01;8.38;;;5.63;;
59097;SDS011;44883;52.760;6.610;2022-12-31T14:22:21;8.85;;;6.38;;
59097;SDS011;44883;52.760;6.610;2022-12-31T14:24:51;11.40;;;9.27;;
59097;SDS011;44883;52.760;6.610;2022-12-31T14:27:33;9.45;;;7.72;;
59097;SDS011;44883;52.760;6.610;2022-12-31T14:30:04;11.25;;;8.15;;
59097;SDS011;44883;52.760;6.610;2022-12-31T14:35:39;10.68;;;6.63;;
59097;SDS011;44883;52.760;6.610;2022-12-31T14:52:34;10.05;;;6.47;;
59097;SDS011;44883;52.760;6.610;2022-12-31T14:57:41;9.02;;;6.10;;
59097;SDS011;44883;52.760;6.610;2022-12-31T15:02:51;7.35;;;3.05;;
59097;SDS011;44883;52.760;6.610;2022-12-31T15:05:21;10.63;;;6.50;;
59097;SDS011;44883;52.760;6.610;2022-12-31T15:16:20;9.70;;;6.25;;
59097;SDS011;44883;52.760;6.610;2022-12-31T15:24:17;10.88;;;6.40;;
59097;SDS011;44883;52.760;6.610;2022-12-31T15:26:52;10.50;;;6.57;;
59097;SDS011;44883;52.760;6.610;2022-12-31T15:29:27;10.05;;;5.95;;
59097;SDS011;44883;52.760;6.610;2022-12-31T15:31:56;10.45;;;6.63;;
59097;SDS011;44883;52.760;6.610;2022-12-31T15:34:31;10.45;;;6.72;;
59097;SDS011;44883;52.760;6.610;2022-12-31T15:37:03;8.35;;;5.55;;
59097;SDS011;44883;52.760;6.610;2022-12-31T15:41:56;8.48;;;6.15;;
59097;SDS011;44883;52.760;6.610;2022-12-31T15:47:19;9.93;;;7.03;;
59097;SDS011;44883;52.760;6.610;2022-12-31T15:50:16;11.45;;;6.22;;
59097;SDS011;44883;52.760;6.610;2022-12-31T15:52:45;10.48;;;6.63;;
59097;SDS011;44883;52.760;6.610;2022-12-31T15:55:21;10.73;;;6.50;;
59097;SDS011;44883;52.760;6.610;2022-12-31T15:57:52;12.13;;;8.40;;
59097;SDS011;44883;52.760;6.610;2022-12-31T16:02:52;13.45;;;9.27;;
59097;SDS011;44883;52.760;6.610;2022-12-31T16:05:22;13.35;;;9.05;;
59097;SDS011;44883;52.760;6.610;2022-12-31T16:08:00;14.60;;;9.05;;
59097;SDS011;44883;52.760;6.610;2022-12-31T16:10:26;14.15;;;10.25;;
59097;SDS011;44883;52.760;6.610;2022-12-31T16:12:55;14.35;;;9.10;;
59097;SDS011;44883;52.760;6.610;2022-12-31T16:15:23;8.93;;;4.85;;
59097;SDS011;44883;52.760;6.610;2022-12-31T16:18:08;14.73;;;9.38;;
59097;SDS011;44883;52.760;6.610;2022-12-31T16:20:42;14.45;;;10.27;;
59097;SDS011;44883;52.760;6.610;2022-12-31T16:23:23;17.50;;;12.23;;
59097;SDS011;44883;52.760;6.610;2022-12-31T16:25:50;16.85;;;12.30;;
59097;SDS011;44883;52.760;6.610;2022-12-31T16:28:21;14.27;;;10.30;;
59097;SDS011;44883;52.760;6.610;2022-12-31T16:30:55;13.63;;;5.55;;
59097;SDS011;44883;52.760;6.610;2022-12-31T16:33:29;19.02;;;16.45;;
59097;SDS011;44883;52.760;6.610;2022-12-31T16:35:56;14.25;;;8.35;;
59097;SDS011;44883;52.760;6.610;2022-12-31T16:38:33;16.35;;;10.68;;
59097;SDS011;44883;52.760;6.610;2022-12-31T16:43:27;18.55;;;12.77;;
59097;SDS011;44883;52.760;6.610;2022-12-31T16:46:05;18.45;;;11.55;;
59097;SDS011;44883;52.760;6.610;2022-12-31T16:48:34;16.60;;;12.40;;
59097;SDS011;44883;52.760;6.610;2022-12-31T16:51:01;19.55;;;13.20;;
59097;SDS011;44883;52.760;6.610;2022-12-31T16:53:27;17.15;;;11.77;;
59097;SDS011;44883;52.760;6.610;2022-12-31T16:56:01;17.02;;;12.25;;
59097;SDS011;44883;52.760;6.610;2022-12-31T16:58:34;16.00;;;11.32;;
59097;SDS011;44883;52.760;6.610;2022-12-31T17:01:13;17.48;;;11.20;;
59097;SDS011;44883;52.760;6.610;2022-12-31T17:03:44;16.45;;;9.95;;
59097;SDS011;44883;52.760;6.610;2022-12-31T17:08:42;15.85;;;8.70;;
59097;SDS011;44883;52.760;6.610;2022-12-31T17:13:43;18.13;;;10.30;;
59097;SDS011;44883;52.760;6.610;2022-12-31T17:16:17;18.95;;;12.20;;
59097;SDS011;44883;52.760;6.610;2022-12-31T17:18:43;21.33;;;11.73;;
59097;SDS011;44883;52.760;6.610;2022-12-31T17:21:11;14.95;;;8.70;;
59097;SDS011;44883;52.760;6.610;2022-12-31T17:23:37;17.45;;;9.52;;
59097;SDS011;44883;52.760;6.610;2022-12-31T17:28:45;16.23;;;8.55;;
59097;SDS011;44883;52.760;6.610;2022-12-31T17:34:16;15.32;;;8.27;;
59097;SDS011;44883;52.760;6.610;2022-12-31T17:39:23;15.60;;;8.48;;
59097;SDS011;44883;52.760;6.610;2022-12-31T17:41:50;15.40;;;8.32;;
59097;SDS011;44883;52.760;6.610;2022-12-31T17:44:20;19.33;;;8.23;;
59097;SDS011;44883;52.760;6.610;2022-12-31T17:46:49;14.77;;;9.02;;
59097;SDS011;44883;52.760;6.610;2022-12-31T17:49:15;17.33;;;9.73;;
59097;SDS011;44883;52.760;6.610;2022-12-31T17:51:45;21.25;;;12.50;;
59097;SDS011;44883;52.760;6.610;2022-12-31T17:54:15;20.52;;;14.82;;
59097;SDS011;44883;52.760;6.610;2022-12-31T17:56:42;19.73;;;13.95;;
59097;SDS011;44883;52.760;6.610;2022-12-31T17:59:15;18.20;;;12.10;;
59097;SDS011;44883;52.760;6.610;2022-12-31T18:01:44;16.10;;;9.60;;
59097;SDS011;44883;52.760;6.610;2022-12-31T18:04:13;17.45;;;9.18;;
59097;SDS011;44883;52.760;6.610;2022-12-31T18:06:40;18.40;;;9.73;;
59097;SDS011;44883;52.760;6.610;2022-12-31T18:09:07;13.25;;;8.85;;
59097;SDS011;44883;52.760;6.610;2022-12-31T18:11:33;16.60;;;8.38;;
59097;SDS011;44883;52.760;6.610;2022-12-31T18:14:00;16.92;;;10.50;;
59097;SDS011;44883;52.760;6.610;2022-12-31T18:16:26;15.82;;;11.25;;
59097;SDS011;44883;52.760;6.610;2022-12-31T18:18:58;13.98;;;10.60;;
59097;SDS011;44883;52.760;6.610;2022-12-31T18:21:28;16.52;;;9.30;;
59097;SDS011;44883;52.760;6.610;2022-12-31T18:23:56;14.52;;;8.15;;
59097;SDS011;44883;52.760;6.610;2022-12-31T18:26:24;14.25;;;7.07;;
59097;SDS011;44883;52.760;6.610;2022-12-31T18:28:50;14.38;;;6.93;;
59097;SDS011;44883;52.760;6.610;2022-12-31T18:31:16;11.68;;;6.30;;
59097;SDS011;44883;52.760;6.610;2022-12-31T18:33:44;11.45;;;6.20;;
59097;SDS011;44883;52.760;6.610;2022-12-31T18:36:14;13.02;;;6.53;;
59097;SDS011;44883;52.760;6.610;2022-12-31T18:38:41;13.00;;;7.18;;
59097;SDS011;44883;52.760;6.610;2022-12-31T18:46:03;13.20;;;8.45;;
59097;SDS011;44883;52.760;6.610;2022-12-31T18:48:29;15.05;;;9.02;;
59097;SDS011;44883;52.760;6.610;2022-12-31T18:50:55;12.73;;;8.00;;
59097;SDS011;44883;52.760;6.610;2022-12-31T18:53:22;15.18;;;8.38;;
59097;SDS011;44883;52.760;6.610;2022-12-31T18:55:52;12.80;;;8.32;;
59097;SDS011;44883;52.760;6.610;2022-12-31T18:58:19;12.48;;;7.95;;
59097;SDS011;44883;52.760;6.610;2022-12-31T19:00:45;11.50;;;7.45;;
59097;SDS011;44883;52.760;6.610;2022-12-31T19:03:19;12.75;;;7.07;;
59097;SDS011;44883;52.760;6.610;2022-12-31T19:05:47;11.82;;;6.90;;
59097;SDS011;44883;52.760;6.610;2022-12-31T19:08:18;12.35;;;7.85;;
59097;SDS011;44883;52.760;6.610;2022-12-31T19:10:46;11.55;;;8.10;;
59097;SDS011;44883;52.760;6.610;2022-12-31T19:13:14;17.23;;;10.98;;
59097;SDS011;44883;52.760;6.610;2022-12-31T19:15:51;14.98;;;9.60;;
59097;SDS011;44883;52.760;6.610;2022-12-31T19:18:17;13.45;;;8.90;;
59097;SDS011;44883;52.760;6.610;2022-12-31T19:20:43;15.38;;;9.73;;
59097;SDS011;44883;52.760;6.610;2022-12-31T19:23:12;15.38;;;9.07;;
59097;SDS011;44883;52.760;6.610;2022-12-31T19:25:40;15.48;;;8.70;;
59097;SDS011;44883;52.760;6.610;2022-12-31T19:28:09;14.63;;;7.97;;
59097;SDS011;44883;52.760;6.610;2022-12-31T19:30:41;14.73;;;8.38;;
59097;SDS011;44883;52.760;6.610;2022-12-31T19:33:06;15.52;;;8.82;;
59097;SDS011;44883;52.760;6.610;2022-12-31T19:35:32;12.80;;;8.63;;
59097;SDS011;44883;52.760;6.610;2022-12-31T19:37:58;14.30;;;8.73;;
59097;SDS011;44883;52.760;6.610;2022-12-31T19:40:25;14.48;;;9.65;;
59097;SDS011;44883;52.760;6.610;2022-12-31T19:42:53;15.27;;;9.48;;
59097;SDS011;44883;52.760;6.610;2022-12-31T19:45:23;14.82;;;10.35;;
59097;SDS011;44883;52.760;6.610;2022-12-31T19:47:51;16.23;;;10.50;;